Latest Weather Observations for Mount Buller

IDV60801

Issued at 11:35 pm EST Friday 19 September 2014 (issued every 30 minutes, with the page automatically refreshed every 10 minutes)

About weather observations | Map of weather stations | Latest weather observations for VIC | Other Formats
Station Details ID: 083024 Name: MOUNT BULLER Lat: -37.15 Lon: 146.44 Height: 1707.0 m
Data from the previous 72 hours. | See also: Recent months at Mount Buller
Date/Time
EST
Temp
°C
App
Temp
°C
Dew
Point
Rel
Hum
%
Delta-T
°C
Wind Press
QNH
hPa
Press
MSL
hPa
Rain
since 9 am
mm
Dir
 
Spd
km/h
Gust
km/h
Spd
kts
Gust
kts
19/11:30pm -1.1 - -6.8 65 1.9 - - - - - - - -
19/11:00pm -1.5 - -4.8 78 1.1 - - - - - - - -
19/10:30pm -1.7 - -1.8 99 0.0 - - - - - - - -
19/10:00pm -1.3 - -1.4 99 0.0 - - - - - - - -
19/09:30pm -1.3 - -1.7 97 0.1 - - - - - - - -
19/09:00pm -1.2 - -1.3 99 0.0 - - - - - - - 0.0
19/08:30pm -0.7 - -0.7 100 0.0 - - - - - - - -
19/08:00pm -0.5 - -0.5 100 0.0 - - - - - - - -
19/07:30pm -0.5 - -0.5 100 0.0 - - - - - - - -
19/07:00pm -0.4 - -0.4 100 0.0 - - - - - - - -
19/06:30pm -0.3 - -0.3 100 0.0 - - - - - - - -
19/06:00pm 0.1 - 0.0 99 0.0 - - - - - - - -
19/05:30pm 0.2 - 0.1 99 0.0 - - - - - - - -
19/05:00pm 0.4 - 0.3 99 0.0 - - - - - - - -
19/04:30pm 0.5 - 0.4 99 0.0 - - - - - - - -
19/04:00pm 0.4 - 0.1 98 0.1 - - - - - - - -
19/03:30pm 0.5 - 0.2 98 0.1 - - - - - - - -
19/03:00pm 0.4 - 0.1 98 0.1 - - - - - - - 0.0
19/02:30pm 0.8 - -0.1 94 0.4 - - - - - - - -
19/02:00pm 1.0 - -0.3 91 0.5 - - - - - - - -
19/01:30pm 0.8 - -0.3 92 0.4 - - - - - - - -
19/01:00pm 0.7 - -0.3 93 0.4 - - - - - - - -
19/12:30pm 0.4 - -0.4 94 0.3 - - - - - - - -
19/12:00pm 0.0 - -0.8 94 0.3 - - - - - - - -
19/11:30am -0.2 - -1.0 94 0.3 - - - - - - - -
19/11:00am -0.1 - -0.8 95 0.3 - - - - - - - -
19/10:30am -0.9 - -1.6 95 0.2 - - - - - - - -
19/10:00am -1.1 - -1.7 96 0.2 - - - - - - - -
19/09:30am -1.3 - -1.9 96 0.2 - - - - - - - -
19/09:00am -1.8 - -2.2 97 0.1 - - - - - - - 4.0
19/08:30am -2.1 - -2.6 96 0.1 - - - - - - - -
19/08:00am -2.5 - -3.0 96 0.1 - - - - - - - -
19/07:30am -2.4 - -3.4 93 0.2 - - - - - - - -
19/07:00am -3.1 - -3.8 95 0.1 - - - - - - - -
19/06:30am -3.2 - -3.7 96 0.0 - - - - - - - -
19/06:00am -3.3 - -4.0 95 0.1 - - - - - - - -
19/05:30am -3.9 - -5.0 92 0.2 - - - - - - - -
19/05:00am -3.8 - -5.0 91 0.2 - - - - - - - -
19/04:30am -4.1 - -5.3 91 0.2 - - - - - - - -
19/04:00am -4.6 - -6.4 87 0.4 - - - - - - - -
19/03:30am -5.1 - -6.9 87 0.4 - - - - - - - -
19/03:00am -5.4 - -6.9 89 0.3 - - - - - - - 0.2
19/02:30am -5.8 - -7.0 91 0.1 - - - - - - - -
19/02:00am -6.0 - -6.9 93 0.0 - - - - - - - -
19/01:30am -5.4 - -6.2 94 0.0 - - - - - - - -
19/01:00am -5.3 - -6.1 94 0.0 - - - - - - - -
19/12:30am -5.2 - -5.9 95 0.0 - - - - - - - -
19/12:00am -5.0 - -5.7 95 0.0 - - - - - - - -
 
Date/Time
EST
Temp
°C
App
Temp
°C
Dew
Point
Rel
Hum
%
Delta-T
°C
Wind Press
QNH
hPa
Press
MSL
hPa
Rain
since 9 am
mm
Dir
 
Spd
km/h
Gust
km/h
Spd
kts
Gust
kts
18/11:30pm -4.2 - -4.9 95 0.1 - - - - - - - -
18/11:00pm -3.1 - -3.5 97 0.0 - - - - - - - -
18/10:30pm -2.4 - -2.8 97 0.0 - - - - - - - -
18/10:00pm -2.6 - -3.0 97 0.0 - - - - - - - -
18/09:30pm -2.3 - -2.6 98 0.0 - - - - - - - -
18/09:00pm -2.2 - -2.5 98 0.0 - - - - - - - 3.0
18/08:30pm -1.8 - -2.1 98 0.0 - - - - - - - -
18/08:00pm -1.9 - -2.2 98 0.0 - - - - - - - -
18/07:30pm -2.0 - -2.3 98 0.0 - - - - - - - -
18/07:00pm -1.7 - -2.0 98 0.0 - - - - - - - -
18/06:30pm -1.5 - -1.8 98 0.0 - - - - - - - -
18/06:00pm -1.3 - -1.4 99 0.0 - - - - - - - -
18/05:30pm -1.2 - -1.3 99 0.0 - - - - - - - -
18/05:00pm -1.2 - -1.3 99 0.0 - - - - - - - -
18/04:30pm -1.0 - -1.1 99 0.0 - - - - - - - -
18/04:00pm -0.8 - -0.9 99 0.0 - - - - - - - -
18/03:30pm -1.0 - -1.1 99 0.0 - - - - - - - -
18/03:00pm -0.8 - -0.9 99 0.0 - - - - - - - 0.4
18/02:30pm -1.1 - -1.2 99 0.0 - - - - - - - -
18/02:00pm -1.1 - -1.2 99 0.0 - - - - - - - -
18/01:30pm -0.8 - -0.9 99 0.0 - - - - - - - -
18/01:00pm -1.0 - -1.1 99 0.0 - - - - - - - -
18/12:30pm -0.8 - -0.9 99 0.0 - - - - - - - -
18/12:00pm -1.3 - -1.6 98 0.0 - - - - - - - -
18/11:30am -1.7 - -2.0 98 0.0 - - - - - - - -
18/11:00am -1.5 - -1.8 98 0.0 - - - - - - - -
18/10:30am -2.1 - -2.5 97 0.0 - - - - - - - -
18/10:00am -2.4 - -2.8 97 0.0 - - - - - - - -
18/09:30am -2.9 - -3.3 97 0.0 - - - - - - - -
18/09:00am -3.0 - -3.4 97 0.0 - - - - - - - 5.0
18/08:30am -3.5 - -4.0 96 0.0 - - - - - - - -
18/08:00am -3.6 - -4.1 96 0.0 - - - - - - - -
18/07:30am -3.4 - -3.9 96 0.0 - - - - - - - -
18/07:00am -3.6 - -4.1 96 0.0 - - - - - - - -
18/06:30am -3.6 - -4.1 96 0.0 - - - - - - - -
18/06:00am -3.5 - -4.0 96 0.0 - - - - - - - -
18/05:30am -3.6 - -4.1 96 0.0 - - - - - - - -
18/05:00am -3.5 - -4.0 96 0.0 - - - - - - - -
18/04:30am -3.5 - -4.0 96 0.0 - - - - - - - -
18/04:00am -3.7 - -4.2 96 0.0 - - - - - - - -
18/03:30am -3.8 - -4.3 96 0.0 - - - - - - - -
18/03:00am -3.8 - -4.3 96 0.0 - - - - - - - 0.6
18/02:30am -3.9 - -4.4 96 0.0 - - - - - - - -
18/02:00am -3.8 - -4.3 96 0.0 - - - - - - - -
18/01:30am -3.7 - -4.2 96 0.0 - - - - - - - -
18/01:00am -3.8 - -4.3 96 0.0 - - - - - - - -
18/12:30am -3.8 - -4.3 96 0.0 - - - - - - - -
18/12:00am -3.7 - -4.2 96 0.0 - - - - - - - -
 
Date/Time
EST
Temp
°C
App
Temp
°C
Dew
Point
Rel
Hum
%
Delta-T
°C
Wind Press
QNH
hPa
Press
MSL
hPa
Rain
since 9 am
mm
Dir
 
Spd
km/h
Gust
km/h
Spd
kts
Gust
kts
17/11:30pm -3.3 - -3.7 97 0.0 - - - - - - - -
17/11:00pm -3.3 - -3.7 97 0.0 - - - - - - - -
17/10:30pm -3.3 - -3.7 97 0.0 - - - - - - - -
17/10:00pm -3.0 - -3.4 97 0.0 - - - - - - - -
17/09:30pm -3.0 - -3.4 97 0.0 - - - - - - - -
17/09:00pm -3.0 - -3.4 97 0.0 - - - - - - - 1.0
17/08:30pm -2.8 - -3.2 97 0.0 - - - - - - - -
17/08:00pm -2.3 - -2.6 98 0.0 - - - - - - - -
17/07:30pm -2.3 - -2.6 98 0.0 - - - - - - - -
17/07:00pm -2.0 - -2.3 98 0.0 - - - - - - - -
17/06:30pm -1.7 - -2.0 98 0.0 - - - - - - - -
17/06:00pm -1.7 - -2.0 98 0.0 - - - - - - - -
17/05:30pm -1.5 - -1.6 99 0.0 - - - - - - - -
17/05:00pm -1.4 - -1.5 99 0.0 - - - - - - - -
17/04:30pm -1.6 - -1.7 99 0.0 - - - - - - - -
17/04:00pm -0.9 - -1.0 99 0.0 - - - - - - - -
17/03:30pm -1.0 - -1.1 99 0.0 - - - - - - - -
17/03:00pm -0.6 - -0.7 99 0.0 - - - - - - - 2.0
17/02:30pm -0.4 - -0.5 99 0.0 - - - - - - - -
17/02:00pm -0.7 - -0.8 99 0.0 - - - - - - - -
17/01:30pm -0.7 - -0.8 99 0.0 - - - - - - - -
17/01:00pm -0.7 - -0.8 99 0.0 - - - - - - - -
17/12:30pm -0.9 - -1.0 99 0.0 - - - - - - - -
17/12:00pm -1.0 - -1.1 99 0.0 - - - - - - - -
17/11:30am -1.0 - -1.1 99 0.0 - - - - - - - -
17/11:00am -1.0 - -1.1 99 0.0 - - - - - - - -
17/10:30am -0.7 - -0.8 99 0.0 - - - - - - - -
17/10:00am -0.8 - -0.9 99 0.0 - - - - - - - -
17/09:30am -0.9 - -1.0 99 0.0 - - - - - - - -
17/09:00am -1.0 - -1.1 99 0.0 - - - - - - - 12.0
17/08:30am -1.0 - -1.1 99 0.0 - - - - - - - -
17/08:00am -1.1 - -1.2 99 0.0 - - - - - - - -
17/07:30am -1.3 - -1.4 99 0.0 - - - - - - - -
17/07:00am -1.5 - -1.8 98 0.0 - - - - - - - -
17/06:30am -1.7 - -2.0 98 0.0 - - - - - - - -
17/06:00am -2.1 - -2.4 98 0.0 - - - - - - - -
17/05:30am -2.0 - -2.3 98 0.0 - - - - - - - -
17/05:00am -1.7 - -2.0 98 0.0 - - - - - - - -
17/04:30am -1.5 - -1.6 99 0.0 - - - - - - - -
17/04:00am -1.4 - -1.5 99 0.0 - - - - - - - -
17/03:30am -1.5 - -1.6 99 0.0 - - - - - - - -
17/03:00am -1.4 - -1.5 99 0.0 - - - - - - - 0.0
17/02:30am -1.5 - -1.6 99 0.0 - - - - - - - -
17/02:00am -1.6 - -1.7 99 0.0 - - - - - - - -
17/01:30am -1.1 - -1.1 100 0.0 - - - - - - - -
17/01:00am -0.9 - -0.9 100 0.0 - - - - - - - -
17/12:30am -1.1 - -1.1 100 0.0 - - - - - - - -
17/12:00am -0.8 - -0.8 100 0.0 - - - - - - - -

Other Formats:

Comma delimited format used in spreadsheet applications
http://www.bom.gov.au/fwo/IDV60801/IDV60801.94894.axf

JavaScript Object Notation format (JSON) in row-major order
http://www.bom.gov.au/fwo/IDV60801/IDV60801.94894.json